Accueil
METAR-TAF:

METAR-TAF

Aéroports :

Aéroport de Lyon-Bron

Lyon, France

latitude: 45-43N, longitude: 004-57E, altitude: 200 m

Observation

Le bulletin a été fait il y a 11 minutes, à 23:00 UTC
Vent 3 kt de sud
Température 20°C
Humidité 68%
Pression 1019 hPa
Visibilité 10 km ou plus
pas de nuages en-dessous de 1500 mètres et pas de cumulonimbus.

METAR: LFLY 172300Z AUTO 19003KT CAVOK 20/14 Q1019

Heure: 01:11 (23:11 UTC)

Prévision

Le bulletin a été fait il y a 12 heures et 11 minutes, à 11:00 UTC
Prévision valable du 17 à 12 UTC au 18 à 12 UTC
Vent 5 kt de nord
Visibilité 10 km ou plus
pas de nuages en-dessous de 1500 mètres et pas de cumulonimbus.
Temporairement
du 18 à 00 UTC au 18 à 07 UTC
Vent 2 kt de direction variable

TAF: LFLY 171100Z 1712/1812 36005KT CAVOK TEMPO 1800/1807 VRB02KT

Observations et prévisions météorologiques de plus de 4000 aéroports (messages METAR et TAF).

Les stations disponibles sont représentées par des disques jaunes et rouges sur la carte.

Passer la souris dessus pour voir le nom de la station.

Cliquer dessus pour voir les observations et prévisions météorologiques.

Pour changer de carte: cliquez sur les boutons verts avec une croix noire pour zoomer, sur le bouton vert avec un tiret pour effectuer un zoom arrière, ou sur les flèches vertes pour les cartes adjacentes.


METAR-TAF: